Time;durP1;ratioP1;P1;durP2;ratioP2;P2;SDS_P1;SDS_P2;PMS_P1;PMS_P2;Temp;Humidity;BMP_temperature;BMP_pressure;BME280_temperature;BME280_humidity;BME280_pressure;Samples;Min_cycle;Max_cycle;Signal;HPM_P1;HPM_P2
2021/06/09 00:00:04;;;;;;;;;;;;;;;24.93;51.02;101789.31;2097068;28;4917;-72
2021/06/09 00:01:05;;;;;;;;;;;;;;;24.93;50.99;101795.88;2088188;28;3928;-71
2021/06/09 00:02:07;;;;;;;;;;;;;;;24.93;50.95;101795.03;2088756;28;4101;-71
2021/06/09 00:03:08;;;;;;;;;;;;;;;24.92;50.95;101791.31;2097055;28;3847;-73
2021/06/09 00:04:09;;;;;;;;;;;;;;;24.93;50.93;101793.00;2096949;28;4005;-72
2021/06/09 00:05:11;;;;;;;;;;;;;;;24.93;51.07;101795.03;2096516;28;3982;-72
2021/06/09 00:06:12;;;;;;;;;;;;;;;24.93;51.09;101798.72;2097910;28;3997;-74
2021/06/09 00:07:13;;;;;;;;;;;;;;;24.93;51.06;101795.03;2094610;28;3839;-74
2021/06/09 00:08:14;;;;;;;;;;;;;;;24.94;50.90;101791.78;2096585;28;3978;-74
2021/06/09 00:09:16;;;;;;;;;;;;;;;24.94;51.08;101790.97;2097006;28;4061;-74
2021/06/09 00:10:17;;;;;;;;;;;;;;;24.93;51.11;101793.00;2086869;28;5214;-74
2021/06/09 00:11:18;;;;;;;;;;;;;;;24.93;51.09;101790.13;2088762;28;3978;-74
2021/06/09 00:12:19;;;;;;;;;;;;;;;24.93;51.05;101795.03;2095602;28;3861;-74
2021/06/09 00:13:21;;;;;;;;;;;;;;;24.92;51.12;101794.16;2096288;28;3991;-74
2021/06/09 00:14:22;;;;;;;;;;;;;;;24.93;51.18;101792.16;2097198;28;4002;-74
2021/06/09 00:15:23;;;;;;;;;;;;;;;24.93;51.04;101797.91;2097031;28;3914;-73
2021/06/09 00:16:24;;;;;;;;;;;;;;;24.93;51.21;101800.75;2096340;28;4019;-73
2021/06/09 00:17:26;;;;;;;;;;;;;;;24.92;51.05;101787.63;2094737;28;4024;-74
2021/06/09 00:18:27;;;;;;;;;;;;;;;24.92;51.15;101796.19;2096822;28;4026;-74
2021/06/09 00:19:28;;;;;;;;;;;;;;;24.93;51.00;101798.72;2096263;28;4013;-74
2021/06/09 00:20:29;;;;;;;;;;;;;;;24.93;50.96;101790.13;2087267;28;4037;-75
2021/06/09 00:21:30;;;;;;;;;;;;;;;24.94;51.04;101793.81;2088355;28;5300;-74
2021/06/09 00:22:32;;;;;;;;;;;;;;;24.93;50.97;101789.31;2096729;28;5051;-75
2021/06/09 00:23:33;;;;;;;;;;;;;;;24.93;51.12;101792.16;2096129;28;4039;-74
2021/06/09 00:24:34;;;;;;;;;;;;;;;24.93;50.89;101795.88;2097357;28;3860;-75
2021/06/09 00:25:35;;;;;;;;;;;;;;;24.93;50.93;101795.03;2096015;28;4006;-75
2021/06/09 00:26:36;;;;;;;;;;;;;;;24.92;50.96;101788.44;2097001;28;3841;-75
2021/06/09 00:27:38;;;;;;;;;;;;;;;24.92;50.85;101794.16;2095328;28;4006;-74
2021/06/09 00:28:39;;;;;;;;;;;;;;;24.93;50.97;101789.31;2097314;28;3830;-75
2021/06/09 00:29:40;;;;;;;;;;;;;;;24.93;50.92;101790.13;2096750;28;3871;-75
2021/06/09 00:30:41;;;;;;;;;;;;;;;24.92;50.91;101788.44;2082638;28;4004;-75
2021/06/09 00:31:43;;;;;;;;;;;;;;;24.93;50.94;101789.31;2084836;28;3827;-74
2021/06/09 00:32:44;;;;;;;;;;;;;;;24.92;50.75;101788.44;2095891;28;3984;-74
2021/06/09 00:33:45;;;;;;;;;;;;;;;24.94;50.84;101793.81;2097394;28;3960;-74
2021/06/09 00:34:46;;;;;;;;;;;;;;;24.92;50.85;101788.44;2097279;28;3914;-74
2021/06/09 00:35:48;;;;;;;;;;;;;;;24.93;50.82;101798.72;2095888;28;3968;-72
2021/06/09 00:36:49;;;;;;;;;;;;;;;24.93;51.04;101795.03;2098008;28;3990;-72
2021/06/09 00:37:50;;;;;;;;;;;;;;;24.93;50.88;101797.91;2095967;28;4053;-72
2021/06/09 00:38:52;;;;;;;;;;;;;;;24.93;50.87;101795.03;2096939;28;3846;-73
2021/06/09 00:39:53;;;;;;;;;;;;;;;24.93;50.84;101790.13;2096298;28;5089;-74
2021/06/09 00:40:54;;;;;;;;;;;;;;;24.94;50.91;101797.53;2097365;28;3838;-74
2021/06/09 00:41:56;;;;;;;;;;;;;;;24.93;50.99;101793.00;2096414;28;4003;-74
2021/06/09 00:42:57;;;;;;;;;;;;;;;24.94;50.90;101796.69;2095605;28;3923;-77
2021/06/09 00:43:58;;;;;;;;;;;;;;;24.93;50.90;101795.88;2095433;28;4189;-77
2021/06/09 00:44:59;;;;;;;;;;;;;;;24.92;50.88;101797.03;2096766;28;3876;-76
2021/06/09 00:46:01;;;;;;;;;;;;;;;24.93;51.00;101792.16;2095987;28;4178;-77
2021/06/09 00:47:02;;;;;;;;;;;;;;;24.93;50.84;101790.13;2096940;28;3997;-76
2021/06/09 00:48:03;;;;;;;;;;;;;;;24.93;50.93;101795.88;2096005;28;3981;-76
2021/06/09 00:49:04;;;;;;;;;;;;;;;24.93;50.91;101800.75;2096622;28;3999;-76
2021/06/09 00:50:06;;;;;;;;;;;;;;;24.94;50.83;101800.38;2096629;28;3929;-75
2021/06/09 00:51:07;;;;;;;;;;;;;;;24.95;50.81;101792.63;2097097;28;4028;-75
2021/06/09 00:52:08;;;;;;;;;;;;;;;24.94;50.79;101790.97;2096117;28;5242;-75
2021/06/09 00:53:28;;;;;;;;;;;;;;;24.95;50.87;101801.22;2097363;28;5244;-75
2021/06/09 00:54:29;;;;;;;;;;;;;;;24.94;50.71;101799.56;2096836;28;3868;-77
2021/06/09 00:55:31;;;;;;;;;;;;;;;24.93;50.73;101795.88;2096476;28;3734;-76
2021/06/09 00:56:32;;;;;;;;;;;;;;;24.95;50.72;101795.50;2096100;28;4000;-77
2021/06/09 00:57:33;;;;;;;;;;;;;;;24.94;50.67;101793.81;2095658;28;4030;-77
2021/06/09 00:58:34;;;;;;;;;;;;;;;24.93;50.70;101793.00;2096288;28;3986;-77
2021/06/09 00:59:36;;;;;;;;;;;;;;;24.93;50.70;101800.75;2097075;28;4118;-76
2021/06/09 01:00:37;;;;;;;;;;;;;;;24.94;50.57;101796.69;2096379;28;4076;-77
2021/06/09 01:01:38;;;;;;;;;;;;;;;24.94;50.52;101799.56;2095532;28;3991;-76
2021/06/09 01:02:40;;;;;;;;;;;;;;;24.93;50.59;101801.59;2096395;28;3866;-75
2021/06/09 01:03:41;;;;;;;;;;;;;;;24.93;50.53;101800.75;2096409;28;4066;-75
2021/06/09 01:04:42;;;;;;;;;;;;;;;24.93;50.55;101797.91;2092991;28;3740;-75
2021/06/09 01:05:43;;;;;;;;;;;;;;;24.93;50.58;101792.16;2096365;28;3936;-75
2021/06/09 01:06:45;;;;;;;;;;;;;;;24.93;50.59;101790.13;2097094;28;3962;-75
2021/06/09 01:07:46;;;;;;;;;;;;;;;24.93;50.66;101797.91;2094915;28;5433;-76
2021/06/09 01:08:47;;;;;;;;;;;;;;;24.92;50.43;101796.19;2096164;28;4148;-76
2021/06/09 01:09:49;;;;;;;;;;;;;;;24.94;50.46;101799.56;2095357;28;3817;-76
2021/06/09 01:10:50;;;;;;;;;;;;;;;24.94;50.40;101790.97;2097062;28;3966;-76
2021/06/09 01:11:51;;;;;;;;;;;;;;;24.93;50.38;101795.03;2096766;28;3827;-75
2021/06/09 01:12:52;;;;;;;;;;;;;;;24.93;50.39;101795.88;2089653;28;3999;-74
2021/06/09 01:13:54;;;;;;;;;;;;;;;24.92;50.36;101791.31;2095638;28;3971;-75
2021/06/09 01:14:55;;;;;;;;;;;;;;;24.93;50.31;101801.59;2096433;28;4911;-73
2021/06/09 01:15:56;;;;;;;;;;;;;;;24.94;50.34;101796.69;2095475;28;3848;-74
2021/06/09 01:16:57;;;;;;;;;;;;;;;24.93;50.19;101797.91;2097404;28;4140;-75
2021/06/09 01:17:59;;;;;;;;;;;;;;;24.93;50.32;101795.88;2095296;28;5069;-74
2021/06/09 01:19:01;;;;;;;;;;;;;;;24.93;50.39;101795.88;2094999;28;3953;-74
2021/06/09 01:20:02;;;;;;;;;;;;;;;24.94;50.16;101793.81;2096163;28;4225;-74
2021/06/09 01:21:03;;;;;;;;;;;;;;;24.94;50.16;101788.09;2098815;28;3868;-75
2021/06/09 01:22:05;;;;;;;;;;;;;;;24.93;50.17;101793.00;2098272;28;3846;-76
2021/06/09 01:23:06;;;;;;;;;;;;;;;24.94;50.17;101800.38;2097425;28;4079;-76
2021/06/09 01:24:07;;;;;;;;;;;;;;;24.93;50.10;101792.16;2098055;28;4027;-76
2021/06/09 01:25:08;;;;;;;;;;;;;;;24.93;50.13;101789.31;2098027;28;4381;-77
2021/06/09 01:26:10;;;;;;;;;;;;;;;24.93;50.18;101784.41;2098409;28;3845;-76
2021/06/09 01:27:15;;;;;;;;;;;;;;;24.94;50.02;101794.66;2095954;28;3824;-76
2021/06/09 01:28:16;;;;;;;;;;;;;;;24.93;50.20;101795.88;2094667;28;4001;-76
2021/06/09 01:29:18;;;;;;;;;;;;;;;24.93;50.02;101795.88;2095585;28;4027;-76
2021/06/09 01:30:19;;;;;;;;;;;;;;;24.93;50.03;101789.31;2095105;28;4999;-76
2021/06/09 01:31:21;;;;;;;;;;;;;;;24.93;50.01;101790.13;2095892;28;3877;-76
2021/06/09 01:32:22;;;;;;;;;;;;;;;24.94;50.00;101790.97;2097088;28;3816;-75
2021/06/09 01:33:23;;;;;;;;;;;;;;;24.93;49.97;101795.88;2098119;28;3894;-76
2021/06/09 01:34:25;;;;;;;;;;;;;;;24.94;50.07;101796.69;2097800;28;4144;-77
2021/06/09 01:35:26;;;;;;;;;;;;;;;24.95;49.90;101792.63;2098203;28;3818;-77
2021/06/09 01:36:27;;;;;;;;;;;;;;;24.93;49.86;101789.31;2098088;28;4013;-79
2021/06/09 01:37:28;;;;;;;;;;;;;;;24.93;50.03;101787.28;2097357;28;3995;-79
2021/06/09 01:38:30;;;;;;;;;;;;;;;24.94;49.96;101785.25;2098341;28;3980;-79
2021/06/09 01:39:31;;;;;;;;;;;;;;;24.94;49.98;101785.25;2096921;28;4017;-79
2021/06/09 01:40:32;;;;;;;;;;;;;;;24.93;49.91;101790.13;2096208;28;3873;-73
2021/06/09 01:41:33;;;;;;;;;;;;;;;24.94;49.97;101779.50;2098366;28;3983;-75
2021/06/09 01:42:34;;;;;;;;;;;;;;;24.93;49.91;101778.69;2088842;28;3823;-76
2021/06/09 01:43:36;;;;;;;;;;;;;;;24.94;50.10;101786.06;2087831;28;3997;-75
2021/06/09 01:44:37;;;;;;;;;;;;;;;24.54;44.66;101789.63;2096688;28;3916;-75
2021/06/09 01:45:38;;;;;;;;;;;;;;;24.12;43.85;101791.69;2097522;28;3874;-76
2021/06/09 01:46:39;;;;;;;;;;;;;;;23.96;43.42;101792.38;2097182;28;5098;-75
2021/06/09 01:47:41;;;;;;;;;;;;;;;23.76;43.41;101791.19;2097468;28;3790;-79
2021/06/09 01:48:42;;;;;;;;;;;;;;;23.86;44.82;101789.09;2098247;28;4146;-79
2021/06/09 01:49:43;;;;;;;;;;;;;;;24.04;45.14;101796.34;2095620;28;3981;-79
2021/06/09 01:50:44;;;;;;;;;;;;;;;24.22;44.92;101792.09;2098248;28;6107;-74
2021/06/09 01:51:46;;;;;;;;;;;;;;;24.32;45.66;101787.16;2097904;28;3776;-78
2021/06/09 01:52:47;;;;;;;;;;;;;;;24.39;46.16;101793.09;2096693;28;4072;-81
2021/06/09 01:53:48;;;;;;;;;;;;;;;24.44;46.37;101795.78;2097949;28;5069;-76
2021/06/09 01:54:49;;;;;;;;;;;;;;;24.46;46.71;101787.69;2098243;28;3848;-81
2021/06/09 01:55:51;;;;;;;;;;;;;;;24.50;46.83;101793.53;2097104;28;3875;-78
2021/06/09 01:56:52;;;;;;;;;;;;;;;24.52;46.94;101789.13;2096015;28;3847;-78
2021/06/09 01:57:53;;;;;;;;;;;;;;;24.55;46.93;101793.31;2097445;28;3988;-75
2021/06/09 01:58:54;;;;;;;;;;;;;;;24.57;47.16;101788.06;2097319;28;3840;-76
2021/06/09 01:59:55;;;;;;;;;;;;;;;24.58;47.28;101795.44;2092304;28;4889;-84
2021/06/09 02:00:57;;;;;;;;;;;;;;;24.60;47.45;101793.09;2097029;28;3778;-74
2021/06/09 02:01:58;;;;;;;;;;;;;;;24.57;47.25;101788.91;2097935;28;3898;-75
2021/06/09 02:02:59;;;;;;;;;;;;;;;24.57;47.46;101791.75;2098157;28;3762;-78
2021/06/09 02:04:01;;;;;;;;;;;;;;;24.57;47.60;101788.91;2096726;28;4113;-79
2021/06/09 02:05:02;;;;;;;;;;;;;;;24.58;47.69;101786.88;2096378;28;3904;-80
2021/06/09 02:06:03;;;;;;;;;;;;;;;24.59;47.69;101792.25;2097509;28;4156;-79
2021/06/09 02:07:04;;;;;;;;;;;;;;;24.60;47.83;101795.94;2097206;28;4044;-80
2021/06/09 02:08:06;;;;;;;;;;;;;;;24.59;47.80;101780.81;2086677;28;4129;-80
2021/06/09 02:09:07;;;;;;;;;;;;;;;24.61;48.02;101786.16;2088601;28;5207;-79
2021/06/09 02:10:08;;;;;;;;;;;;;;;24.61;48.05;101791.88;2096891;28;4038;-82
2021/06/09 02:11:10;;;;;;;;;;;;;;;24.60;47.91;101778.78;2098433;28;4000;-79
2021/06/09 02:12:11;;;;;;;;;;;;;;;24.61;48.15;101789.00;2098126;28;3820;-79
2021/06/09 02:13:12;;;;;;;;;;;;;;;24.61;48.07;101777.56;2096130;28;4029;-79
2021/06/09 02:14:13;;;;;;;;;;;;;;;24.60;48.10;101791.03;2096805;28;3887;-78
2021/06/09 02:15:15;;;;;;;;;;;;;;;24.60;48.20;101787.34;2097277;28;3909;-80
2021/06/09 02:16:16;;;;;;;;;;;;;;;24.60;48.26;101779.59;2096712;28;4104;-80
2021/06/09 02:17:17;;;;;;;;;;;;;;;24.61;48.38;101786.97;2087970;28;4079;-79
2021/06/09 02:18:19;;;;;;;;;;;;;;;24.61;48.35;101777.56;2087870;28;4045;-80
2021/06/09 02:19:23;;;;;;;;;;;;;;;24.60;48.37;101787.34;2096848;28;4005;-79
2021/06/09 02:20:24;;;;;;;;;;;;;;;24.60;48.31;101782.47;2097284;28;4074;-79
2021/06/09 02:21:25;;;;;;;;;;;;;;;24.60;48.43;101782.47;2098513;28;4386;-79
2021/06/09 02:22:26;;;;;;;;;;;;;;;24.60;48.28;101781.63;2096720;28;4060;-79
2021/06/09 02:23:28;;;;;;;;;;;;;;;24.60;48.45;101793.09;2096035;28;3940;-79
2021/06/09 02:24:29;;;;;;;;;;;;;;;24.60;48.39;101782.47;2097857;28;3857;-83
2021/06/09 02:25:30;;;;;;;;;;;;;;;24.59;48.41;101786.53;2097595;28;3865;-85
2021/06/09 02:26:31;;;;;;;;;;;;;;;24.60;48.36;101778.78;2097746;28;5097;-84
2021/06/09 02:27:33;;;;;;;;;;;;;;;24.60;48.54;101776.75;2097187;28;4068;-83
2021/06/09 02:28:35;;;;;;;;;;;;;;;24.61;48.38;101783.28;2096116;28;3851;-79
2021/06/09 02:29:36;;;;;;;;;;;;;;;24.60;48.59;101781.63;2098072;28;3992;-79
2021/06/09 02:30:37;;;;;;;;;;;;;;;24.60;48.63;101775.91;2095806;28;4061;-80
2021/06/09 02:31:38;;;;;;;;;;;;;;;24.60;48.62;101784.50;2096266;28;4003;-79
2021/06/09 02:32:40;;;;;;;;;;;;;;;24.60;48.69;101779.59;2094634;28;3855;-78
2021/06/09 02:33:41;;;;;;;;;;;;;;;24.60;48.63;101776.75;2097754;28;3841;-79
2021/06/09 02:34:42;;;;;;;;;;;;;;;24.60;48.70;101782.47;2097714;28;3998;-79
2021/06/09 02:35:43;;;;;;;;;;;;;;;24.59;48.65;101775.06;2097357;28;4070;-79
2021/06/09 02:36:45;;;;;;;;;;;;;;;24.60;48.69;101776.75;2097214;28;3862;-78
2021/06/09 02:37:46;;;;;;;;;;;;;;;24.60;48.67;101775.91;2096760;28;3847;-77
2021/06/09 02:38:49;;;;;;;;;;;;;;;24.60;48.84;101771.00;2097505;28;3960;-79
2021/06/09 02:39:50;;;;;;;;;;;;;;;24.59;48.82;101772.22;2084247;28;3774;-79
2021/06/09 02:40:51;;;;;;;;;;;;;;;24.60;48.83;101781.63;2093407;28;3984;-79
2021/06/09 02:41:52;;;;;;;;;;;;;;;24.59;48.75;101782.81;2097097;28;3953;-79
2021/06/09 02:42:53;;;;;;;;;;;;;;;24.58;48.80;101779.13;2096064;28;3974;-85
2021/06/09 02:43:55;;;;;;;;;;;;;;;24.59;48.81;101780.81;2098040;28;3848;-84
2021/06/09 02:44:56;;;;;;;;;;;;;;;24.59;48.74;101782.81;2096553;28;4929;-84
2021/06/09 02:45:58;;;;;;;;;;;;;;;24.59;48.81;101775.06;2097460;28;3913;-84
2021/06/09 02:46:59;;;;;;;;;;;;;;;24.60;48.80;101778.78;2096787;28;4008;-82
2021/06/09 02:48:00;;;;;;;;;;;;;;;24.59;48.75;101774.22;2096615;28;4933;-82
2021/06/09 02:49:02;;;;;;;;;;;;;;;24.60;48.84;101778.78;2095179;28;4006;-81
2021/06/09 02:50:04;;;;;;;;;;;;;;;24.60;48.79;101787.34;2096937;28;5140;-82
2021/06/09 02:51:06;;;;;;;;;;;;;;;24.59;48.76;101782.81;2097913;28;4092;-83
2021/06/09 02:52:07;;;;;;;;;;;;;;;24.59;48.84;101779.94;2096131;28;4092;-83
2021/06/09 02:53:08;;;;;;;;;;;;;;;24.59;48.80;101786.53;2097245;28;4056;-83
2021/06/09 02:54:09;;;;;;;;;;;;;;;24.59;48.73;101791.38;2097630;28;4151;-83
2021/06/09 02:55:11;;;;;;;;;;;;;;;24.59;48.75;101791.38;2096534;28;4014;-82
2021/06/09 02:56:12;;;;;;;;;;;;;;;24.59;48.65;101791.38;2096811;28;5101;-82
2021/06/09 02:57:13;;;;;;;;;;;;;;;24.59;48.78;101780.81;2096590;28;4010;-83
2021/06/09 02:58:14;;;;;;;;;;;;;;;24.60;48.65;101787.34;2097545;28;3848;-81
2021/06/09 02:59:15;;;;;;;;;;;;;;;24.60;48.65;101790.22;2098368;28;3999;-81
2021/06/09 03:00:17;;;;;;;;;;;;;;;24.59;48.62;101792.25;2096437;28;3872;-81
2021/06/09 03:01:19;;;;;;;;;;;;;;;24.60;48.73;101793.09;2096822;28;4075;-81
2021/06/09 03:02:20;;;;;;;;;;;;;;;24.60;48.64;101784.50;2097322;28;4058;-82
2021/06/09 03:03:21;;;;;;;;;;;;;;;24.59;48.63;101794.25;2088676;28;4238;-80
2021/06/09 03:04:23;;;;;;;;;;;;;;;24.60;48.67;101793.09;2086610;28;4077;-79
2021/06/09 03:05:24;;;;;;;;;;;;;;;24.59;48.74;101791.38;2094867;28;3853;-79
2021/06/09 03:06:25;;;;;;;;;;;;;;;24.58;48.82;101789.72;2096695;28;4009;-77
2021/06/09 03:07:26;;;;;;;;;;;;;;;24.59;48.60;101791.38;2095510;28;4100;-77
2021/06/09 03:08:29;;;;;;;;;;;;;;;24.59;48.77;101791.38;2095993;28;3899;-77
2021/06/09 03:09:30;;;;;;;;;;;;;;;24.58;48.68;101790.56;2096711;28;4037;-75
2021/06/09 03:10:31;;;;;;;;;;;;;;;24.57;48.76;101788.91;2096535;28;3835;-76
2021/06/09 03:11:33;;;;;;;;;;;;;;;24.59;48.66;101794.25;2097894;28;3850;-75
2021/06/09 03:12:36;;;;;;;;;;;;;;;24.58;48.73;101798.31;2096267;28;4032;-75
2021/06/09 03:15:14;;;;;;;;;;;;;;;24.59;48.66;101797.13;2095586;28;4626;-75
2021/06/09 03:16:15;;;;;;;;;;;;;;;24.58;48.64;101795.44;2096771;28;3849;-75
2021/06/09 03:17:21;;;;;;;;;;;;;;;24.57;48.50;101797.47;2096452;28;4021;-75
2021/06/09 03:18:22;;;;;;;;;;;;;;;24.57;48.57;101797.47;2097440;28;3891;-75
2021/06/09 03:19:23;;;;;;;;;;;;;;;24.58;48.56;101796.28;2087728;28;3803;-75
2021/06/09 03:20:25;;;;;;;;;;;;;;;24.58;48.54;101792.59;2088767;28;3964;-75
2021/06/09 03:21:26;;;;;;;;;;;;;;;24.56;48.52;101797.81;2097154;28;4048;-75
2021/06/09 03:22:27;;;;;;;;;;;;;;;24.57;48.61;101796.66;2097159;28;3991;-76
2021/06/09 03:23:28;;;;;;;;;;;;;;;24.57;48.50;101793.78;2097396;28;3983;-76
2021/06/09 03:24:30;;;;;;;;;;;;;;;24.57;48.54;101793.78;2097125;28;4153;-76
2021/06/09 03:25:31;;;;;;;;;;;;;;;24.56;48.49;101792.94;2097382;28;4014;-75
2021/06/09 03:26:32;;;;;;;;;;;;;;;24.56;48.49;101798.66;2096794;28;4037;-76
2021/06/09 03:27:34;;;;;;;;;;;;;;;24.56;48.49;101790.06;2096740;28;3988;-76
2021/06/09 03:28:35;;;;;;;;;;;;;;;24.56;48.36;101792.94;2095828;28;4117;-76
2021/06/09 03:29:37;;;;;;;;;;;;;;;24.55;48.51;101791.28;2096455;28;3840;-86
2021/06/09 03:30:38;;;;;;;;;;;;;;;24.56;48.35;101792.94;2096515;28;3906;-84
2021/06/09 03:31:39;;;;;;;;;;;;;;;24.56;48.45;101795.78;2096902;28;4126;-81
2021/06/09 03:32:40;;;;;;;;;;;;;;;24.54;48.34;101786.75;2097604;28;3843;-82
2021/06/09 03:33:42;;;;;;;;;;;;;;;24.55;48.32;101791.28;2097395;28;4019;-82
2021/06/09 03:34:43;;;;;;;;;;;;;;;24.56;48.29;101789.25;2096532;28;3914;-82
2021/06/09 03:35:44;;;;;;;;;;;;;;;24.55;48.29;101788.41;2095546;28;3910;-82
2021/06/09 03:36:45;;;;;;;;;;;;;;;24.55;48.32;101784.72;2097725;28;3879;-82
2021/06/09 03:37:47;;;;;;;;;;;;;;;24.55;48.28;101793.31;2096442;28;4180;-78
2021/06/09 03:38:49;;;;;;;;;;;;;;;24.55;48.35;101787.59;2097432;28;3885;-79
2021/06/09 03:39:57;;;;;;;;;;;;;;;24.55;48.25;101779.00;2096305;28;3942;-79
2021/06/09 03:40:58;;;;;;;;;;;;;;;24.55;48.31;101779.00;2096478;28;3817;-80
2021/06/09 03:41:59;;;;;;;;;;;;;;;24.54;48.28;101777.34;2097843;28;4088;-79
2021/06/09 03:43:01;;;;;;;;;;;;;;;24.55;48.17;101779.00;2096833;28;4023;-78
2021/06/09 03:44:02;;;;;;;;;;;;;;;24.54;48.31;101777.34;2096929;28;3860;-79
2021/06/09 03:45:04;;;;;;;;;;;;;;;24.53;48.23;101772.78;2096141;28;3980;-76
2021/06/09 03:46:07;;;;;;;;;;;;;;;24.53;48.16;101775.66;2096799;28;3855;-77
2021/06/09 03:47:08;;;;;;;;;;;;;;;24.53;48.25;101778.50;2097255;28;4079;-77
2021/06/09 03:48:09;;;;;;;;;;;;;;;24.52;48.31;101785.44;2097870;28;5085;-76
2021/06/09 03:49:10;;;;;;;;;;;;;;;24.51;48.19;101775.16;2097048;28;4071;-77
2021/06/09 03:50:12;;;;;;;;;;;;;;;24.49;48.32;101778.38;2097568;28;4077;-78
2021/06/09 03:51:13;;;;;;;;;;;;;;;24.50;48.22;101782.09;2097375;28;3770;-77
2021/06/09 03:52:14;;;;;;;;;;;;;;;24.49;48.16;101775.53;2096806;28;4035;-77
2021/06/09 03:53:15;;;;;;;;;;;;;;;24.48;48.24;101773.88;2098217;28;3986;-77
2021/06/09 03:54:17;;;;;;;;;;;;;;;24.48;48.28;101775.88;2097781;28;3982;-77
2021/06/09 03:55:18;;;;;;;;;;;;;;;24.49;48.14;101774.69;2097349;28;3998;-77
2021/06/09 03:56:19;;;;;;;;;;;;;;;24.48;48.14;101781.59;2088375;28;4030;-76
2021/06/09 03:57:21;;;;;;;;;;;;;;;24.47;48.10;101775.03;2088389;28;4134;-77
2021/06/09 03:58:22;;;;;;;;;;;;;;;24.47;48.14;101772.19;2096496;28;3835;-77
2021/06/09 03:59:24;;;;;;;;;;;;;;;24.47;48.05;101777.91;2098021;28;3944;-77
2021/06/09 04:00:25;;;;;;;;;;;;;;;24.47;47.99;101777.06;2098227;28;3992;-76
2021/06/09 04:01:26;;;;;;;;;;;;;;;24.47;47.97;101783.63;2098020;28;3916;-76
2021/06/09 04:02:28;;;;;;;;;;;;;;;24.47;48.05;101774.22;2098470;28;4365;-76
2021/06/09 04:03:29;;;;;;;;;;;;;;;24.46;47.92;101781.13;2095914;28;4001;-77
2021/06/09 04:04:30;;;;;;;;;;;;;;;24.46;47.86;101767.66;2095270;28;5210;-77
2021/06/09 04:05:31;;;;;;;;;;;;;;;24.46;47.73;101770.53;2097002;28;5028;-76
2021/06/09 04:06:33;;;;;;;;;;;;;;;24.47;47.74;101774.22;2097555;28;3800;-77
2021/06/09 04:07:34;;;;;;;;;;;;;;;24.46;47.75;101784.00;2096672;28;3819;-76
2021/06/09 04:08:35;;;;;;;;;;;;;;;24.45;47.80;101774.56;2096432;28;3857;-77
2021/06/09 04:09:36;;;;;;;;;;;;;;;24.43;47.75;101777.78;2097474;28;4048;-75
2021/06/09 04:10:37;;;;;;;;;;;;;;;24.44;47.73;101772.88;2097800;28;3979;-76
2021/06/09 04:11:39;;;;;;;;;;;;;;;24.43;47.88;101769.19;2097380;28;4042;-77
2021/06/09 04:12:40;;;;;;;;;;;;;;;24.43;47.72;101774.91;2097550;28;3927;-77
2021/06/09 04:13:41;;;;;;;;;;;;;;;24.42;47.69;101776.06;2095919;28;4009;-77
2021/06/09 04:14:43;;;;;;;;;;;;;;;24.44;47.57;101778.63;2096390;28;3741;-78
2021/06/09 04:15:44;;;;;;;;;;;;;;;24.42;47.68;101775.22;2096974;28;3849;-77
2021/06/09 04:16:45;;;;;;;;;;;;;;;24.42;47.66;101776.06;2097237;28;3996;-77
2021/06/09 04:17:46;;;;;;;;;;;;;;;24.41;47.66;101774.41;2096481;28;4031;-77
2021/06/09 04:18:48;;;;;;;;;;;;;;;24.42;47.74;101772.38;2096874;28;3964;-76
2021/06/09 04:19:49;;;;;;;;;;;;;;;24.41;47.68;101767.84;2097259;28;3991;-76
2021/06/09 04:20:50;;;;;;;;;;;;;;;24.40;47.71;101775.59;2096717;28;3942;-75
2021/06/09 04:21:52;;;;;;;;;;;;;;;24.39;47.63;101773.91;2096997;28;3804;-76
2021/06/09 04:22:53;;;;;;;;;;;;;;;24.41;47.56;101780.13;2096845;28;3839;-74
2021/06/09 04:23:54;;;;;;;;;;;;;;;24.40;47.64;101778.47;2097671;28;5955;-76
2021/06/09 04:24:56;;;;;;;;;;;;;;;24.40;47.53;101772.75;2096937;28;4665;-76
2021/06/09 04:25:57;;;;;;;;;;;;;;;24.40;47.55;101778.47;2096503;28;4140;-76
2021/06/09 04:26:58;;;;;;;;;;;;;;;24.39;47.58;101775.94;2096841;28;4034;-76
2021/06/09 04:27:59;;;;;;;;;;;;;;;24.39;47.60;101785.34;2095672;28;3856;-76
2021/06/09 04:29:00;;;;;;;;;;;;;;;24.38;47.50;101780.84;2097593;28;4032;-78
2021/06/09 04:30:02;;;;;;;;;;;;;;;24.40;47.62;101783.34;2097226;28;3861;-78
2021/06/09 04:31:03;;;;;;;;;;;;;;;24.38;47.58;101780.84;2096543;28;3925;-73
2021/06/09 04:32:04;;;;;;;;;;;;;;;24.38;47.51;101777.97;2095190;28;3995;-74
2021/06/09 04:33:10;;;;;;;;;;;;;;;24.38;47.50;101777.16;2096324;28;3776;-75
2021/06/09 04:34:11;;;;;;;;;;;;;;;24.38;47.47;101780.84;2097029;28;4159;-74
2021/06/09 04:35:12;;;;;;;;;;;;;;;24.38;47.47;101775.13;2097007;28;4046;-75
2021/06/09 04:36:13;;;;;;;;;;;;;;;24.37;47.49;101778.31;2098233;28;5367;-76
2021/06/09 04:37:15;;;;;;;;;;;;;;;24.37;47.41;101775.44;2087010;28;5276;-75
2021/06/09 04:38:16;;;;;;;;;;;;;;;24.37;47.49;101778.31;2087868;28;3957;-75
2021/06/09 04:39:17;;;;;;;;;;;;;;;24.37;47.43;101784.03;2097206;28;3854;-76
2021/06/09 04:40:19;;;;;;;;;;;;;;;24.37;47.49;101778.31;2096602;28;3848;-77
2021/06/09 04:41:20;;;;;;;;;;;;;;;24.37;47.41;101782.03;2088214;28;6431;-81
2021/06/09 04:42:21;;;;;;;;;;;;;;;24.36;47.52;101783.19;2087752;28;3879;-76
2021/06/09 04:43:23;;;;;;;;;;;;;;;24.35;47.56;101781.53;2096561;28;3881;-76
2021/06/09 04:44:24;;;;;;;;;;;;;;;24.36;47.66;101786.06;2096622;28;3821;-83
2021/06/09 04:45:25;;;;;;;;;;;;;;;24.35;47.58;101781.53;2094481;28;4010;-73
2021/06/09 04:46:27;;;;;;;;;;;;;;;24.35;47.53;101781.53;2095742;28;4033;-73
2021/06/09 04:47:28;;;;;;;;;;;;;;;24.35;47.57;101784.41;2096174;28;4018;-73
2021/06/09 04:48:29;;;;;;;;;;;;;;;24.35;47.46;101781.53;2095634;28;3800;-76
2021/06/09 04:49:31;;;;;;;;;;;;;;;24.34;47.48;101779.03;2094880;28;3995;-73
2021/06/09 04:50:32;;;;;;;;;;;;;;;24.34;47.47;101779.88;2094306;28;4018;-73
2021/06/09 04:51:33;;;;;;;;;;;;;;;24.34;47.54;101781.88;2096569;28;3912;-71
2021/06/09 04:52:34;;;;;;;;;;;;;;;24.33;47.49;101778.19;2097564;28;3998;-71
2021/06/09 04:53:35;;;;;;;;;;;;;;;24.34;47.49;101779.03;2097906;28;3998;-72
2021/06/09 04:54:37;;;;;;;;;;;;;;;24.33;47.47;101774.50;2097852;28;3812;-72
2021/06/09 04:55:38;;;;;;;;;;;;;;;24.34;47.36;101784.75;2094507;28;3978;-72
2021/06/09 04:56:40;;;;;;;;;;;;;;;24.33;47.45;101783.09;2088462;28;3877;-72
2021/06/09 04:57:41;;;;;;;;;;;;;;;24.33;47.57;101778.19;2089650;28;3988;-73
2021/06/09 04:58:43;;;;;;;;;;;;;;;24.33;47.61;101777.38;2097907;28;3887;-73
2021/06/09 04:59:44;;;;;;;;;;;;;;;24.32;47.58;101773.66;2098309;28;3811;-73
2021/06/09 05:00:45;;;;;;;;;;;;;;;24.32;47.64;101782.25;2098792;28;3961;-72
2021/06/09 05:01:46;;;;;;;;;;;;;;;24.31;47.71;101777.69;2096950;28;4034;-73
2021/06/09 05:02:48;;;;;;;;;;;;;;;24.32;47.65;101785.13;2098275;28;3977;-72
2021/06/09 05:03:49;;;;;;;;;;;;;;;24.33;47.61;101777.38;2099111;28;3816;-74
2021/06/09 05:04:50;;;;;;;;;;;;;;;24.34;47.56;101781.88;2098144;28;4128;-74
2021/06/09 05:05:51;;;;;;;;;;;;;;;24.32;47.64;101776.53;2098288;28;4075;-73
2021/06/09 05:06:53;;;;;;;;;;;;;;;24.33;47.60;101783.91;2098093;28;3830;-75
2021/06/09 05:07:54;;;;;;;;;;;;;;;24.32;47.74;101785.13;2097809;28;4011;-75
2021/06/09 05:08:55;;;;;;;;;;;;;;;24.32;47.74;101782.25;2098506;28;4607;-73
2021/06/09 05:09:56;;;;;;;;;;;;;;;24.33;47.64;101783.09;2098729;28;4008;-75
2021/06/09 05:10:57;;;;;;;;;;;;;;;24.32;47.71;101775.69;2098185;28;4007;-75
2021/06/09 05:11:59;;;;;;;;;;;;;;;24.32;47.59;101778.56;2098989;28;3954;-75
2021/06/09 05:13:00;;;;;;;;;;;;;;;24.32;47.71;101784.28;2097770;28;3840;-75
2021/06/09 05:14:02;;;;;;;;;;;;;;;24.33;47.76;101783.09;2099227;28;4000;-75
2021/06/09 05:15:03;;;;;;;;;;;;;;;24.33;47.71;101780.22;2098506;28;4935;-75
2021/06/09 05:16:04;;;;;;;;;;;;;;;24.32;47.75;101779.41;2098368;28;4879;-75
2021/06/09 05:17:06;;;;;;;;;;;;;;;24.33;47.75;101781.06;2098000;28;4023;-75
2021/06/09 05:18:07;;;;;;;;;;;;;;;24.32;47.70;101776.53;2098917;28;5181;-75
2021/06/09 05:19:09;;;;;;;;;;;;;;;24.33;47.66;101783.91;2097868;28;3862;-75
2021/06/09 05:20:10;;;;;;;;;;;;;;;24.32;47.75;101776.53;2098739;28;4017;-75
2021/06/09 05:21:11;;;;;;;;;;;;;;;24.31;47.72;101777.69;2097535;28;4031;-76